Ringgold, Pennsylvania
Current Conditions -  °F | °C
As of 3:53 PM on Monday 24 Nov 2014 (Local Time) from KDUJ Reporting Station
Broken Clouds Broken Clouds  
Wind Chill: 64°   Ceiling: 10000
Heat Index: 64°   Visibility: 10mi
Dew Point: 40°   Wind: 22mph
Humidity: 41%   Direction: 210°SSW
Pressure: 29.46"   Gusts: 37mph
Location:  40.99°N, 79.17°W
Report Text: KDUJ 242053Z AUTO 21019G32KT 10SM FEW080 BKN100 18/04 A2946 RMK AO2 PK WND 22039/2006 SLP971 T01780044 53018
Loading
Personal Weather Stations






























Interactive Weather Map New forecast layout! Learn more

10-Day Weather Forecast

Advertisements
Track Severe Weather on mobile